createdAt,value
2019-06-18T00:00:53.858Z,6.30
2019-06-18T00:03:21.737Z,7.00
2019-06-18T00:05:51.876Z,6.20
2019-06-18T00:08:20.072Z,6.40
2019-06-18T00:10:51.141Z,6.20
2019-06-18T00:13:21.900Z,6.50
2019-06-18T00:15:52.397Z,7.20
2019-06-18T00:18:20.934Z,6.37
2019-06-18T00:20:51.146Z,6.50
2019-06-18T00:23:21.018Z,6.00
2019-06-18T00:25:50.895Z,7.75
2019-06-18T00:28:20.647Z,6.80
2019-06-18T00:30:50.569Z,6.50
2019-06-18T00:33:20.415Z,6.80
2019-06-18T00:35:48.514Z,6.37
2019-06-18T00:38:16.422Z,6.53
2019-06-18T00:40:44.310Z,6.85
2019-06-18T00:43:13.742Z,6.40
2019-06-18T00:45:57.460Z,6.47
2019-06-18T00:48:12.565Z,6.85
2019-06-18T00:50:40.447Z,7.10
2019-06-18T00:53:08.450Z,6.70
2019-06-18T00:55:38.033Z,6.47
2019-06-18T00:58:08.135Z,7.17
2019-06-18T01:00:37.197Z,7.20
2019-06-18T01:03:07.419Z,7.40
2019-06-18T01:05:36.929Z,6.60
2019-06-18T01:08:06.423Z,7.87
2019-06-18T01:10:33.869Z,6.40
2019-06-18T01:13:01.764Z,6.87
2019-06-18T01:15:31.925Z,7.62
2019-06-18T01:17:59.853Z,7.05
2019-06-18T01:20:27.734Z,6.80
2019-06-18T01:22:55.577Z,7.40
2019-06-18T01:25:23.500Z,7.75
2019-06-18T01:27:53.051Z,7.15
2019-06-18T01:30:22.520Z,6.80
2019-06-18T01:32:53.015Z,7.47
2019-06-18T01:35:23.070Z,7.15
2019-06-18T01:37:52.425Z,7.92
2019-06-18T01:40:22.747Z,8.00
2019-06-18T01:42:52.394Z,9.40
2019-06-18T01:45:22.707Z,8.60
2019-06-18T01:47:53.501Z,7.07
2019-06-18T01:50:23.730Z,9.15
2019-06-18T01:52:53.260Z,8.80
2019-06-18T01:55:23.184Z,8.13
2019-06-18T01:57:53.178Z,8.00
2019-06-18T02:00:23.610Z,7.90
2019-06-18T02:02:53.905Z,8.37
2019-06-18T02:05:23.180Z,8.53
2019-06-18T02:07:53.185Z,8.25
2019-06-18T02:10:20.442Z,8.10
2019-06-18T02:12:48.549Z,7.70
2019-06-18T02:15:16.391Z,8.33
2019-06-18T02:17:45.452Z,8.27
2019-06-18T02:20:14.899Z,8.43
2019-06-18T02:22:43.305Z,8.23
2019-06-18T02:25:13.650Z,7.90
2019-06-18T02:27:42.911Z,8.50
2019-06-18T02:30:13.514Z,9.38
2019-06-18T02:32:43.986Z,8.68
2019-06-18T02:35:13.641Z,8.80
2019-06-18T02:37:43.101Z,9.03
2019-06-18T02:40:12.876Z,8.58
2019-06-18T02:42:43.582Z,8.73
2019-06-18T02:45:12.999Z,7.65
2019-06-18T02:47:43.039Z,8.40
2019-06-18T02:50:13.520Z,9.78
2019-06-18T02:52:43.360Z,8.35
2019-06-18T02:55:13.393Z,8.00
2019-06-18T02:57:42.661Z,7.80
2019-06-18T03:00:13.790Z,8.30
2019-06-18T03:02:42.923Z,9.35
2019-06-18T03:05:13.414Z,7.90
2019-06-18T03:07:42.927Z,7.60
2019-06-18T03:10:12.942Z,7.37
2019-06-18T03:12:42.886Z,7.80
2019-06-18T03:15:13.436Z,8.70
2019-06-18T03:17:42.803Z,8.60
2019-06-18T03:20:12.375Z,8.70
2019-06-18T03:22:43.171Z,8.60
2019-06-18T03:25:10.058Z,8.45
2019-06-18T03:27:39.295Z,8.20
2019-06-18T03:30:07.456Z,8.95
2019-06-18T03:32:35.386Z,8.70
2019-06-18T03:35:03.957Z,8.68
2019-06-18T03:37:33.642Z,9.48
2019-06-18T03:40:02.577Z,8.75
2019-06-18T03:42:33.140Z,8.60
2019-06-18T03:45:02.614Z,8.68
2019-06-18T03:47:45.408Z,8.53
2019-06-18T03:50:04.632Z,7.70
2019-06-18T03:52:33.444Z,8.85
2019-06-18T03:55:03.612Z,9.15
2019-06-18T03:57:33.125Z,8.60
2019-06-18T04:00:03.741Z,10.00
2019-06-18T04:02:33.167Z,8.63
2019-06-18T04:05:03.754Z,9.38
2019-06-18T04:07:32.895Z,8.08
2019-06-18T04:10:02.466Z,10.35
2019-06-18T04:12:32.740Z,10.13
2019-06-18T04:15:03.344Z,10.00
2019-06-18T04:17:32.329Z,9.45
2019-06-18T04:20:03.406Z,10.28
2019-06-18T04:22:32.568Z,9.88
2019-06-18T04:25:03.120Z,10.60
2019-06-18T04:27:33.127Z,10.13
2019-06-18T04:30:02.755Z,10.50
2019-06-18T04:32:33.228Z,9.55
2019-06-18T04:35:02.945Z,9.75
2019-06-18T04:37:32.384Z,9.50
2019-06-18T04:40:03.918Z,10.28
2019-06-18T04:42:33.115Z,9.30
2019-06-18T04:45:02.995Z,10.25
2019-06-18T04:47:32.638Z,11.33
2019-06-18T04:50:02.612Z,11.20
2019-06-18T04:52:32.480Z,10.50
2019-06-18T04:55:03.347Z,10.85
2019-06-18T04:57:30.131Z,11.95
2019-06-18T04:59:59.809Z,11.43
2019-06-18T05:02:27.670Z,11.88
2019-06-18T05:04:56.051Z,10.80
2019-06-18T05:07:23.920Z,11.18
2019-06-18T05:09:53.072Z,10.25
2019-06-18T05:12:23.095Z,11.33
2019-06-18T05:14:54.997Z,10.10
2019-06-18T05:17:22.902Z,10.10
2019-06-18T05:19:52.878Z,10.70
2019-06-18T05:22:23.373Z,10.65
2019-06-18T05:24:49.933Z,10.35
2019-06-18T05:27:17.806Z,11.50
2019-06-18T05:29:45.680Z,10.08
2019-06-18T05:32:13.584Z,10.63
2019-06-18T05:34:42.570Z,10.28
2019-06-18T05:37:13.320Z,9.95
2019-06-18T05:39:43.480Z,10.50
2019-06-18T05:42:12.575Z,11.37
2019-06-18T05:44:39.662Z,10.25
2019-06-18T05:47:07.521Z,9.78
2019-06-18T05:49:35.346Z,10.17
2019-06-18T05:52:04.296Z,10.05
2019-06-18T05:54:33.245Z,10.00
2019-06-18T05:57:03.550Z,9.43
2019-06-18T05:59:32.245Z,9.00
2019-06-18T06:02:03.379Z,9.47
2019-06-18T06:04:32.312Z,9.07
2019-06-18T06:06:59.443Z,9.70
2019-06-18T06:09:27.251Z,9.50
2019-06-18T06:11:55.098Z,9.53
2019-06-18T06:14:22.990Z,9.23
2019-06-18T06:16:54.295Z,8.70
2019-06-18T06:19:22.423Z,8.60
2019-06-18T06:21:49.964Z,9.10
2019-06-18T06:24:17.791Z,8.90
2019-06-18T06:26:45.610Z,9.53
2019-06-18T06:29:14.729Z,9.33
2019-06-18T06:31:43.459Z,8.73
2019-06-18T06:34:13.235Z,8.83
2019-06-18T06:36:42.649Z,8.70
2019-06-18T06:39:13.633Z,8.30
2019-06-18T06:41:40.106Z,8.00
2019-06-18T06:44:08.332Z,8.17
2019-06-18T06:46:36.155Z,8.37
2019-06-18T06:49:04.612Z,9.10
2019-06-18T06:51:32.790Z,7.40
2019-06-18T06:54:03.020Z,7.63
2019-06-18T06:56:32.875Z,7.33
2019-06-18T06:58:59.934Z,7.37
2019-06-18T07:01:27.808Z,7.57
2019-06-18T07:03:55.653Z,7.77
2019-06-18T07:06:23.486Z,7.20
2019-06-18T07:08:52.339Z,6.93
2019-06-18T07:11:22.896Z,7.37
2019-06-18T07:13:50.009Z,6.70
2019-06-18T07:16:17.816Z,8.27
2019-06-18T07:18:45.678Z,8.47
2019-06-18T07:21:13.728Z,8.47
2019-06-18T07:23:43.563Z,8.30
2019-06-18T07:26:12.971Z,8.60
2019-06-18T07:28:43.169Z,7.73
2019-06-18T07:31:12.640Z,7.60
2019-06-18T07:33:42.289Z,6.90
2019-06-18T07:36:12.287Z,7.53
2019-06-18T07:38:39.266Z,8.40
2019-06-18T07:41:07.276Z,6.90
2019-06-18T07:43:35.151Z,6.70
2019-06-18T07:46:03.060Z,6.70
2019-06-18T07:48:33.369Z,6.30
2019-06-18T07:51:03.758Z,7.00
2019-06-18T07:53:32.298Z,6.50
2019-06-18T07:55:59.606Z,6.77
2019-06-18T07:58:27.424Z,6.10
2019-06-18T08:00:55.354Z,6.53
2019-06-18T08:03:23.488Z,7.63
2019-06-18T08:05:52.935Z,6.30
2019-06-18T08:08:23.225Z,6.30
2019-06-18T08:10:53.273Z,6.43
2019-06-18T08:13:20.355Z,6.50
2019-06-18T08:15:48.353Z,6.97
2019-06-18T08:18:16.336Z,6.00
2019-06-18T08:20:44.423Z,6.03
2019-06-18T08:23:13.364Z,6.67
2019-06-18T08:25:43.645Z,6.37
2019-06-18T08:28:12.545Z,6.53
2019-06-18T08:30:43.394Z,6.97
2019-06-18T08:33:12.830Z,7.47
2019-06-18T08:35:42.911Z,7.27
2019-06-18T08:38:12.752Z,7.13
2019-06-18T08:40:42.212Z,7.07
2019-06-18T08:43:09.793Z,7.00
2019-06-18T08:45:37.605Z,6.70
2019-06-18T08:48:05.464Z,7.20
2019-06-18T08:50:46.607Z,7.70
2019-06-18T08:53:02.882Z,6.77
2019-06-18T08:55:32.969Z,7.80
2019-06-18T08:58:02.235Z,7.10
2019-06-18T09:00:32.345Z,7.47
2019-06-18T09:02:59.389Z,7.30
2019-06-18T09:05:27.199Z,7.10
2019-06-18T09:07:55.034Z,6.70
2019-06-18T09:10:23.272Z,7.07
2019-06-18T09:12:53.143Z,7.20
2019-06-18T09:15:22.932Z,7.20
2019-06-18T09:17:52.488Z,7.30
2019-06-18T09:20:19.908Z,8.30
2019-06-18T09:22:47.750Z,7.50
2019-06-18T09:25:15.679Z,7.17
2019-06-18T09:27:43.938Z,6.83
2019-06-18T09:30:12.595Z,8.07
2019-06-18T09:32:40.925Z,6.87
2019-06-18T09:35:09.771Z,7.20
2019-06-18T09:37:37.604Z,9.90
2019-06-18T09:40:06.341Z,7.27
2019-06-18T09:42:34.173Z,6.93
2019-06-18T09:45:03.392Z,6.00
2019-06-18T09:47:33.027Z,6.90
2019-06-18T09:50:03.146Z,6.70
2019-06-18T09:52:32.413Z,6.57
2019-06-18T09:55:00.314Z,6.13
2019-06-18T09:57:28.145Z,6.00
2019-06-18T09:59:56.000Z,5.40
2019-06-18T10:02:23.829Z,6.43
2019-06-18T10:04:53.299Z,6.40
2019-06-18T10:07:23.237Z,6.23
2019-06-18T10:09:53.705Z,6.40
2019-06-18T10:12:22.913Z,4.87
2019-06-18T10:14:50.490Z,4.37
2019-06-18T10:17:18.313Z,4.43
2019-06-18T10:19:46.195Z,3.83
2019-06-18T10:22:14.239Z,4.10
2019-06-18T10:24:42.438Z,4.23
2019-06-18T10:27:13.025Z,4.40
2019-06-18T10:29:57.684Z,3.83
2019-06-18T10:32:09.485Z,4.10
2019-06-18T10:34:37.312Z,3.90
2019-06-18T10:37:05.173Z,3.33
2019-06-18T10:39:33.018Z,4.77
2019-06-18T10:42:03.644Z,3.30
2019-06-18T10:44:32.876Z,4.93
2019-06-18T10:47:02.628Z,5.13
2019-06-18T10:49:29.745Z,5.47
2019-06-18T10:52:00.732Z,5.80
2019-06-18T10:54:27.529Z,5.97
2019-06-18T10:56:55.384Z,5.80
2019-06-18T10:59:23.217Z,5.47
2019-06-18T11:01:52.925Z,3.80
2019-06-18T11:04:20.634Z,3.23
2019-06-18T11:06:48.512Z,3.83
2019-06-18T11:09:16.387Z,4.17
2019-06-18T11:11:44.229Z,4.20
2019-06-18T11:14:15.730Z,3.73
2019-06-18T11:16:42.765Z,3.73
2019-06-18T11:19:12.853Z,4.20
2019-06-18T11:21:43.185Z,4.27
2019-06-18T11:24:13.085Z,3.50
2019-06-18T11:26:39.746Z,3.60
2019-06-18T11:29:07.585Z,3.90
2019-06-18T11:31:35.471Z,3.93
2019-06-18T11:34:04.083Z,3.90
2019-06-18T11:36:32.692Z,3.63
2019-06-18T11:39:03.631Z,4.00
2019-06-18T11:41:30.519Z,4.30
2019-06-18T11:43:58.407Z,4.17
2019-06-18T11:46:26.284Z,3.97
2019-06-18T11:48:54.206Z,3.43
2019-06-18T11:51:23.233Z,3.90
2019-06-18T11:53:52.958Z,4.53
2019-06-18T11:56:23.369Z,4.13
2019-06-18T11:58:53.071Z,3.80
2019-06-18T12:01:22.779Z,4.10
2019-06-18T12:03:52.648Z,4.80
2019-06-18T12:06:19.327Z,3.77
2019-06-18T12:08:47.183Z,4.00
2019-06-18T12:11:15.015Z,4.00
2019-06-18T12:13:43.943Z,4.00
2019-06-18T12:16:13.072Z,4.13
2019-06-18T12:18:42.709Z,4.50
2019-06-18T12:21:10.812Z,4.13
2019-06-18T12:23:38.676Z,3.67
2019-06-18T12:26:06.548Z,4.03
2019-06-18T12:28:34.399Z,4.17
2019-06-18T12:31:02.804Z,4.10
2019-06-18T12:33:32.854Z,4.47
2019-06-18T12:36:00.529Z,4.13
2019-06-18T12:38:28.716Z,4.60
2019-06-18T12:40:56.592Z,4.00
2019-06-18T12:43:26.581Z,4.50
2019-06-18T12:45:53.990Z,4.67
2019-06-18T12:48:23.823Z,4.17
2019-06-18T12:50:52.985Z,3.90
2019-06-18T12:53:23.621Z,4.37
2019-06-18T12:55:52.899Z,5.10
2019-06-18T12:58:20.133Z,4.70
2019-06-18T13:00:47.994Z,4.87
2019-06-18T13:03:15.876Z,4.43
2019-06-18T13:05:43.789Z,4.20
2019-06-18T13:08:11.650Z,4.60
2019-06-18T13:10:39.685Z,4.53
2019-06-18T13:13:07.493Z,4.43
2019-06-18T13:15:35.366Z,4.20
2019-06-18T13:18:03.380Z,4.30
2019-06-18T13:20:31.270Z,4.67
2019-06-18T13:22:59.092Z,4.57
2019-06-18T13:25:27.178Z,4.67
2019-06-18T13:27:55.042Z,4.53
2019-06-18T13:30:23.543Z,4.43
2019-06-18T13:32:53.930Z,4.30
2019-06-18T13:35:23.634Z,5.03
2019-06-18T13:37:54.610Z,4.50
2019-06-18T13:40:25.150Z,4.50
2019-06-18T13:42:52.631Z,4.67
2019-06-18T13:45:20.006Z,4.50
2019-06-18T13:47:48.070Z,4.97
2019-06-18T13:50:16.917Z,4.57
2019-06-18T13:52:44.824Z,4.20
2019-06-18T13:55:12.865Z,4.07
2019-06-18T13:57:42.889Z,4.57
2019-06-18T14:00:13.845Z,4.87
2019-06-18T14:02:40.141Z,4.93
2019-06-18T14:05:08.498Z,4.73
2019-06-18T14:07:36.426Z,4.67
2019-06-18T14:10:04.753Z,5.33
2019-06-18T14:12:33.152Z,4.93
2019-06-18T14:15:02.797Z,4.13
2019-06-18T14:17:30.762Z,5.43
2019-06-18T14:19:58.681Z,4.50
2019-06-18T14:22:26.521Z,4.90
2019-06-18T14:24:54.345Z,4.73
2019-06-18T14:27:27.058Z,4.70
2019-06-18T14:29:53.006Z,5.50
2019-06-18T14:32:24.095Z,5.20
2019-06-18T14:34:52.651Z,4.50
2019-06-18T14:37:22.724Z,4.33
2019-06-18T14:39:52.168Z,4.63
2019-06-18T14:42:19.308Z,4.70
2019-06-18T14:44:47.474Z,4.47
2019-06-18T14:47:15.334Z,4.77
2019-06-18T14:49:43.207Z,4.63
2019-06-18T14:52:12.731Z,4.80
2019-06-18T14:54:43.088Z,4.27
2019-06-18T14:57:12.643Z,4.20
2019-06-18T14:59:40.009Z,4.47
2019-06-18T15:02:07.882Z,4.80
2019-06-18T15:04:37.748Z,4.57
2019-06-18T15:07:05.455Z,5.00
2019-06-18T15:09:33.365Z,4.80
2019-06-18T15:12:02.800Z,4.90
2019-06-18T15:14:33.125Z,5.00
2019-06-18T15:17:02.859Z,4.47
2019-06-18T15:19:33.005Z,4.80
2019-06-18T15:21:59.731Z,5.17
2019-06-18T15:24:42.423Z,5.47
2019-06-18T15:26:57.181Z,5.20
2019-06-18T15:29:25.034Z,5.80
2019-06-18T15:31:53.170Z,4.50
2019-06-18T15:34:23.140Z,5.23
2019-06-18T15:36:53.131Z,5.50
2019-06-18T15:39:26.194Z,5.60
2019-06-18T15:41:55.344Z,4.50
2019-06-18T15:44:23.305Z,5.10
2019-06-18T15:46:52.969Z,4.63
2019-06-18T15:49:23.218Z,5.40
2019-06-18T15:51:53.063Z,5.00
2019-06-18T15:54:20.674Z,4.70
2019-06-18T15:56:48.559Z,4.63
2019-06-18T15:59:16.397Z,5.47
2019-06-18T16:01:44.262Z,5.47
2019-06-18T16:04:14.096Z,4.97
2019-06-18T16:06:46.039Z,5.20
2019-06-18T16:09:12.763Z,5.07
2019-06-18T16:11:43.002Z,5.40
2019-06-18T16:14:10.425Z,5.30
2019-06-18T16:16:38.303Z,5.50
2019-06-18T16:19:06.194Z,4.90
2019-06-18T16:21:34.046Z,4.90
2019-06-18T16:24:02.637Z,5.10
2019-06-18T16:26:32.141Z,5.30
2019-06-18T16:29:02.608Z,4.80
2019-06-18T16:31:29.926Z,5.00
2019-06-18T16:33:57.757Z,4.90
2019-06-18T16:36:25.778Z,5.13
2019-06-18T16:38:53.869Z,5.30
2019-06-18T16:41:23.428Z,5.50
2019-06-18T16:43:51.429Z,5.10
2019-06-18T16:46:19.309Z,5.27
2019-06-18T16:48:47.149Z,5.80
2019-06-18T16:51:15.010Z,5.80
2019-06-18T16:53:43.305Z,4.90
2019-06-18T16:56:12.936Z,5.90
2019-06-18T16:58:43.311Z,5.90
2019-06-18T17:01:10.415Z,4.80
2019-06-18T17:03:38.266Z,5.77
2019-06-18T17:06:06.156Z,5.30
2019-06-18T17:08:33.983Z,5.50
2019-06-18T17:11:02.285Z,5.67
2019-06-18T17:13:32.923Z,5.13
2019-06-18T17:15:59.923Z,5.37
2019-06-18T17:18:27.779Z,5.70
2019-06-18T17:20:55.641Z,5.27
2019-06-18T17:23:23.531Z,5.03
2019-06-18T17:25:57.548Z,5.33
2019-06-18T17:28:36.874Z,5.53
2019-06-18T17:31:05.070Z,5.00
2019-06-18T17:33:33.067Z,5.70
2019-06-18T17:36:03.075Z,5.90
2019-06-18T17:38:34.507Z,5.27
2019-06-18T17:41:02.829Z,5.40
2019-06-18T17:43:33.597Z,5.40
2019-06-18T17:46:03.914Z,5.53
2019-06-18T17:48:35.433Z,4.80
2019-06-18T17:51:03.291Z,5.37
2019-06-18T17:53:37.029Z,4.83
2019-06-18T17:56:07.819Z,5.90
2019-06-18T17:58:35.762Z,5.60
2019-06-18T18:01:03.749Z,5.10
2019-06-18T18:03:33.611Z,6.27
2019-06-18T18:06:05.402Z,5.40
2019-06-18T18:08:33.344Z,5.23
2019-06-18T18:11:03.217Z,5.37
2019-06-18T18:13:33.711Z,5.17
2019-06-18T18:16:03.755Z,5.70
2019-06-18T18:18:33.928Z,4.80
2019-06-18T18:21:03.529Z,6.20
2019-06-18T18:23:31.113Z,5.97
2019-06-18T18:26:13.107Z,5.40
2019-06-18T18:28:32.765Z,5.40
2019-06-18T18:30:59.770Z,5.60
2019-06-18T18:33:27.637Z,5.90
2019-06-18T18:35:57.008Z,5.90
2019-06-18T18:38:25.591Z,5.67
2019-06-18T18:40:54.021Z,5.27
2019-06-18T18:43:23.017Z,5.73
2019-06-18T18:45:53.110Z,5.80
2019-06-18T18:48:23.591Z,5.60
2019-06-18T18:50:52.387Z,5.77
2019-06-18T18:53:23.495Z,5.87
2019-06-18T18:55:52.851Z,5.77
2019-06-18T18:58:30.699Z,5.33
2019-06-18T19:01:03.422Z,5.70
2019-06-18T19:03:33.204Z,5.47
2019-06-18T19:06:03.647Z,8.27
2019-06-18T19:08:32.905Z,5.70
2019-06-18T19:11:02.812Z,6.20
2019-06-18T19:13:32.355Z,6.20
2019-06-18T19:16:02.881Z,6.60
2019-06-18T19:18:32.694Z,6.00
2019-06-18T19:21:02.565Z,6.90
2019-06-18T19:23:29.916Z,6.37
2019-06-18T19:25:57.802Z,8.00
2019-06-18T19:28:33.376Z,7.17
2019-06-18T19:31:03.556Z,7.60
2019-06-18T19:33:33.063Z,7.10
2019-06-18T19:36:03.132Z,6.97
2019-06-18T19:38:32.883Z,7.03
2019-06-18T19:41:00.774Z,7.13
2019-06-18T19:43:29.389Z,7.07
2019-06-18T19:45:59.545Z,6.60
2019-06-18T19:48:27.456Z,6.30
2019-06-18T19:50:57.365Z,7.20
2019-06-18T19:53:27.695Z,6.97
2019-06-18T19:55:57.147Z,7.53
2019-06-18T19:58:25.119Z,7.33
2019-06-18T20:00:54.503Z,6.90
2019-06-18T20:03:23.015Z,7.80
2019-06-18T20:05:52.666Z,7.83
2019-06-18T20:08:23.121Z,8.40
2019-06-18T20:10:50.676Z,7.83
2019-06-18T20:13:19.627Z,7.10
2019-06-18T20:15:47.571Z,8.10
2019-06-18T20:18:15.499Z,8.43
2019-06-18T20:20:43.405Z,8.00
2019-06-18T20:23:11.651Z,7.80
2019-06-18T20:25:39.560Z,7.20
2019-06-18T20:28:07.450Z,8.20
2019-06-18T20:30:35.390Z,7.37
2019-06-18T20:33:03.658Z,7.07
2019-06-18T20:35:33.563Z,7.97
2019-06-18T20:38:01.109Z,7.60
2019-06-18T20:40:32.719Z,7.53
2019-06-18T20:43:00.101Z,7.40
2019-06-18T20:45:27.978Z,7.70
2019-06-18T20:47:55.868Z,8.00
2019-06-18T20:50:23.829Z,8.93
2019-06-18T20:52:52.969Z,8.33
2019-06-18T20:55:23.346Z,8.07
2019-06-18T20:57:50.796Z,9.70
2019-06-18T21:00:19.310Z,8.00
2019-06-18T21:02:47.150Z,8.77
2019-06-18T21:05:15.093Z,9.40
2019-06-18T21:07:43.671Z,8.67
2019-06-18T21:10:12.405Z,9.00
2019-06-18T21:12:40.495Z,9.03
2019-06-18T21:15:09.200Z,8.63
2019-06-18T21:17:37.053Z,8.37
2019-06-18T21:20:05.687Z,8.30
2019-06-18T21:22:34.897Z,8.30
2019-06-18T21:25:03.495Z,8.97
2019-06-18T21:27:31.387Z,8.47
2019-06-18T21:30:03.540Z,8.53
2019-06-18T21:32:32.653Z,8.60
2019-06-18T21:35:03.160Z,9.47
2019-06-18T21:37:34.662Z,9.63
2019-06-18T21:40:03.838Z,8.63
2019-06-18T21:42:32.719Z,9.53
2019-06-18T21:45:02.494Z,10.23
2019-06-18T21:47:30.346Z,9.33
2019-06-18T21:49:58.153Z,10.73
2019-06-18T21:52:29.505Z,9.93
2019-06-18T21:54:57.342Z,10.30
2019-06-18T21:57:25.306Z,9.80
2019-06-18T21:59:53.143Z,10.60
2019-06-18T22:02:23.125Z,10.90
2019-06-18T22:04:53.641Z,11.10
2019-06-18T22:07:22.756Z,11.90
2019-06-18T22:09:52.550Z,10.17
2019-06-18T22:12:23.222Z,11.07
2019-06-18T22:14:53.016Z,10.93
2019-06-18T22:17:20.300Z,10.77
2019-06-18T22:19:48.166Z,10.87
2019-06-18T22:22:16.031Z,10.83
2019-06-18T22:24:43.913Z,10.80
2019-06-18T22:27:11.747Z,10.90
2019-06-18T22:29:39.639Z,10.70
2019-06-18T22:32:07.668Z,10.93
2019-06-18T22:34:35.698Z,11.40
2019-06-18T22:37:03.578Z,10.90
2019-06-18T22:39:33.804Z,10.30
2019-06-18T22:42:03.237Z,11.53
2019-06-18T22:44:32.512Z,11.47
2019-06-18T22:47:02.904Z,10.60
2019-06-18T22:49:32.781Z,11.03
2019-06-18T22:51:59.890Z,11.37
2019-06-18T22:54:28.050Z,10.53
2019-06-18T22:56:55.881Z,11.30
2019-06-18T22:59:23.878Z,10.80
2019-06-18T23:01:53.824Z,11.57
2019-06-18T23:04:23.294Z,11.77
2019-06-18T23:06:53.285Z,12.17
2019-06-18T23:09:23.038Z,12.20
2019-06-18T23:11:53.717Z,11.87
2019-06-18T23:14:21.620Z,11.67
2019-06-18T23:16:49.532Z,11.60
2019-06-18T23:19:22.221Z,11.10
2019-06-18T23:21:50.149Z,11.37
2019-06-18T23:24:21.473Z,12.37
2019-06-18T23:26:49.995Z,10.50
2019-06-18T23:29:17.842Z,11.00
2019-06-18T23:31:46.162Z,10.90
2019-06-18T23:34:15.912Z,10.90
2019-06-18T23:36:45.586Z,11.23
2019-06-18T23:39:15.381Z,12.07
2019-06-18T23:41:43.724Z,11.90
2019-06-18T23:44:12.982Z,11.57
2019-06-18T23:46:41.063Z,11.70
2019-06-18T23:49:08.922Z,11.83
2019-06-18T23:51:36.753Z,11.83
2019-06-18T23:54:04.588Z,11.33
2019-06-18T23:56:32.422Z,12.67
2019-06-18T23:59:00.262Z,13.77
